Overview Statistics Trail Chart Weather Telemetry Raw packets
 

This is the latest recevied weather packets stored in our database for station/object Dunnningn. If no packets are shown the sender has not sent any weather packets the latest 10 day(s).

<< 7 8 9 10 11 12 13 >>
Time Temp. Humidity Pressure Rain* Wind** Luminosity Snow
1788240729 13.33° C 84% 1021.4 hPa 0 mm - - -
1788238929 13.33° C 84% 1021.4 hPa 0 mm - - -
1788237130 13.33° C 85% 1021.3 hPa 0 mm - - -
1788235330 13.33° C 85% 1021.3 hPa 0 mm - - -
1788233529 12.78° C 86% 1021.3 hPa 0 mm - - -
1788231729 12.78° C 85% 1021.3 hPa 0 mm - - -
1788229930 12.78° C 85% 1021.4 hPa 0 mm - - -
1788228129 12.78° C 84% 1021.3 hPa 0 mm - - -
1788226329 13.33° C 83% 1021.1 hPa 0 mm - - -
1788224529 13.33° C 83% 1021.1 hPa 0 mm - - -
1788222731 13.33° C 82% 1021.2 hPa 0 mm - - -
1788220931 13.89° C 81% 1021.2 hPa 0 mm - - -
1788219131 14.44° C 79% 1021.1 hPa 0 mm - - -
1788217331 14.44° C 78% 1021 hPa 0 mm - - -
1788215532 15° C 78% 1020.9 hPa 0 mm - - -
1788211930 15.56° C 76% 1020.9 hPa 4.32 mm - - -
1788210131 16.11° C 74% 1020.7 hPa 4.32 mm - - -
1788208331 16.67° C 73% 1020.6 hPa 4.32 mm - - -
1788206530 16.67° C 71% 1020.2 hPa 4.32 mm - - -
1788204730 16.11° C 71% 1020.3 hPa 4.32 mm - - -
1788202931 16.67° C 69% 1019.8 hPa 4.32 mm - - -
1788201131 17.22° C 66% 1019.5 hPa 4.32 mm - - -
1788199330 17.78° C 65% 1019.1 hPa 4.32 mm - - -
1788197530 18.33° C 65% 1019 hPa 4.32 mm - - -
1788195731 20° C 58% 1019.2 hPa 4.32 mm - - -

* Rain since midnight (hover to see other rain measurements)
** Current wind speed in m/s (hover to see current wind gust speed)